الصفحة الرئيسية
METAR-TAF:

METAR-TAF

مطار :

مطار عمان المدني

عمان, الأردن

دائرة عرض: 31-59N, خط طول: 035-59E, ارتفاع: 767 متر

مراقبة الطقس الحالي

تاريخ ووقت الإصدار 33 دقيقة قبل الساعة 18:00UTC
ريح 8 عقدة من الشمال/الشمال الغربي
درجة الحرارة 20°درجة مئوية
الرطوبة 68%
ضغط 1017 hPa
الرؤية: 6000 متر

METAR: OJAM 161800Z 33008KT 6000 NSC 20/14 Q1017 NOSIG

زمن: 21:33 (18:33 UTC)

توقعات

تاريخ ووقت الإصدار 1ساعة و 52 دقيقة قبل الساعة 16:41UTC
التوقعات صالحة من16 الساعة 18 UTC إلى 17 الساعة 24 UTC
ريح 10 عقدة من الغرب/الشمال الغربي
الرؤية: 5000 متر
العجاج
مؤقت
من 17 الساعة 01 UTC إلى 17 الساعة 06 UTC
ريح 2 عقدةمن اتجاهات متغيرة
الرؤية: 3000 متر
غيوم قليلة على ارتفاع 2500 قدم
غشاء
مؤقت
من 17 الساعة 12 UTC إلى 17 الساعة 20 UTC
الرؤية: 4000 متر
غيوم قليلة على ارتفاع 3500 قدم
غبار

TAF: OJAM 161641Z 1618/1724 30010KT 5000 HZ NSC TEMPO 1701/1706 VRB02KT 3000 BR FEW025 TEMPO 1712/1720 4000 DU FEW035

أرصاد الطقس والتوقعات من أكثر من 4000 مطار (تقارير الطقس للمطار METAR والتنبؤ بالطقس بالمطارTAF).

المحطات المتاحة هي النقط الصفراء والحمراء على الخريطة.

حرك المؤشر فوق النقطة لمعرفة اسم المحطة.

ثم انقر لمعرفة أرصاد وتوقعات الطقس.

لتغيير الخارطة: اضغط على الأزرار الخضراء مع رمز الصليب الأسود للتكبير. على الزر الأخضر مع شرطة للتصغير، أو على الأسهم الخضراء للخرائط المجاورة.


METAR-TAF: